sensor_id;sensor_type;location;lat;lon;timestamp;pressure;altitude;pressure_sealevel;temperature;humidity
61484;BME280;47349;55.640;37.692;2022-12-29T00:00:10;99031.94;;;-0.92;100.00
61484;BME280;47349;55.640;37.692;2022-12-29T00:02:41;99001.69;;;-0.98;99.80
61484;BME280;47349;55.640;37.692;2022-12-29T00:05:08;99047.72;;;-0.92;98.54
61484;BME280;47349;55.640;37.692;2022-12-29T00:07:35;99011.50;;;-1.00;98.08
61484;BME280;47349;55.640;37.692;2022-12-29T00:10:04;99018.31;;;-0.97;97.34
61484;BME280;47349;55.640;37.692;2022-12-29T00:12:31;99018.66;;;-1.02;96.54
61484;BME280;47349;55.640;37.692;2022-12-29T00:15:18;99015.19;;;-1.02;96.05
61484;BME280;47349;55.640;37.692;2022-12-29T00:18:03;99009.38;;;-1.06;95.65
61484;BME280;47349;55.640;37.692;2022-12-29T00:20:34;99007.44;;;-1.04;95.74
61484;BME280;47349;55.640;37.692;2022-12-29T00:23:20;99001.56;;;-1.08;95.66
61484;BME280;47349;55.640;37.692;2022-12-29T00:26:13;99026.81;;;-1.05;94.86
61484;BME280;47349;55.640;37.692;2022-12-29T00:28:59;99033.13;;;-1.08;95.08
61484;BME280;47349;55.640;37.692;2022-12-29T00:31:45;99017.56;;;-1.22;93.25
61484;BME280;47349;55.640;37.692;2022-12-29T00:34:30;99014.94;;;-1.22;93.64
61484;BME280;47349;55.640;37.692;2022-12-29T00:37:16;99039.22;;;-1.18;93.80
61484;BME280;47349;55.640;37.692;2022-12-29T00:39:44;99009.19;;;-1.38;93.62
61484;BME280;47349;55.640;37.692;2022-12-29T00:42:30;99032.00;;;-1.39;92.87
61484;BME280;47349;55.640;37.692;2022-12-29T00:45:16;99046.31;;;-1.54;92.83
61484;BME280;47349;55.640;37.692;2022-12-29T00:47:43;99050.63;;;-1.42;92.68
61484;BME280;47349;55.640;37.692;2022-12-29T00:50:11;99043.28;;;-1.61;93.22
61484;BME280;47349;55.640;37.692;2022-12-29T00:52:38;99039.25;;;-1.53;93.35
61484;BME280;47349;55.640;37.692;2022-12-29T00:55:05;99028.97;;;-1.57;93.30
61484;BME280;47349;55.640;37.692;2022-12-29T00:57:32;99014.38;;;-1.61;92.98
61484;BME280;47349;55.640;37.692;2022-12-29T00:59:59;99038.09;;;-1.49;93.09
61484;BME280;47349;55.640;37.692;2022-12-29T01:02:29;99035.41;;;-1.61;92.71
61484;BME280;47349;55.640;37.692;2022-12-29T01:04:56;99054.56;;;-1.47;92.70
61484;BME280;47349;55.640;37.692;2022-12-29T01:07:23;99044.75;;;-1.45;93.25
61484;BME280;47349;55.640;37.692;2022-12-29T01:09:50;99044.53;;;-1.42;93.50
61484;BME280;47349;55.640;37.692;2022-12-29T01:12:36;99054.44;;;-1.46;93.84
61484;BME280;47349;55.640;37.692;2022-12-29T01:15:13;99030.97;;;-1.60;94.08
61484;BME280;47349;55.640;37.692;2022-12-29T01:17:41;99054.06;;;-1.52;93.57
61484;BME280;47349;55.640;37.692;2022-12-29T01:20:10;99058.34;;;-1.63;93.15
61484;BME280;47349;55.640;37.692;2022-12-29T01:22:38;99025.75;;;-1.84;93.82
61484;BME280;47349;55.640;37.692;2022-12-29T01:25:06;99037.69;;;-1.91;93.52
61484;BME280;47349;55.640;37.692;2022-12-29T01:27:34;99052.72;;;-1.93;93.73
61484;BME280;47349;55.640;37.692;2022-12-29T01:30:01;99065.16;;;-1.84;93.71
61484;BME280;47349;55.640;37.692;2022-12-29T01:32:29;99054.28;;;-1.91;93.62
61484;BME280;47349;55.640;37.692;2022-12-29T01:34:57;99049.00;;;-2.02;93.68
61484;BME280;47349;55.640;37.692;2022-12-29T01:37:24;99076.97;;;-1.90;93.98
61484;BME280;47349;55.640;37.692;2022-12-29T01:39:52;99067.97;;;-1.98;94.02
61484;BME280;47349;55.640;37.692;2022-12-29T01:42:19;99060.16;;;-1.87;93.89
61484;BME280;47349;55.640;37.692;2022-12-29T01:44:54;99071.84;;;-1.91;93.70
61484;BME280;47349;55.640;37.692;2022-12-29T01:52:41;99069.00;;;-1.88;93.94
61484;BME280;47349;55.640;37.692;2022-12-29T01:55:10;99064.66;;;-1.89;93.81
61484;BME280;47349;55.640;37.692;2022-12-29T01:57:43;99056.13;;;-1.80;93.89
61484;BME280;47349;55.640;37.692;2022-12-29T02:00:14;99048.19;;;-1.91;93.43
61484;BME280;47349;55.640;37.692;2022-12-29T02:02:52;99069.38;;;-1.82;93.48
61484;BME280;47349;55.640;37.692;2022-12-29T02:05:28;99078.28;;;-1.84;93.89
61484;BME280;47349;55.640;37.692;2022-12-29T02:07:57;99058.41;;;-1.99;93.88
61484;BME280;47349;55.640;37.692;2022-12-29T02:10:27;99078.72;;;-2.01;94.00
61484;BME280;47349;55.640;37.692;2022-12-29T02:12:56;99069.38;;;-2.05;93.77
61484;BME280;47349;55.640;37.692;2022-12-29T02:16:01;99074.25;;;-1.88;94.27
61484;BME280;47349;55.640;37.692;2022-12-29T02:18:39;99073.38;;;-1.89;93.97
61484;BME280;47349;55.640;37.692;2022-12-29T02:27:04;99081.16;;;-1.87;93.48
61484;BME280;47349;55.640;37.692;2022-12-29T02:30:02;99075.66;;;-1.84;93.96
61484;BME280;47349;55.640;37.692;2022-12-29T02:38:10;99077.09;;;-1.91;93.70
61484;BME280;47349;55.640;37.692;2022-12-29T02:41:16;99089.84;;;-1.98;93.50
61484;BME280;47349;55.640;37.692;2022-12-29T02:51:58;99073.97;;;-2.33;94.46
61484;BME280;47349;55.640;37.692;2022-12-29T02:54:24;99089.91;;;-2.23;94.88
61484;BME280;47349;55.640;37.692;2022-12-29T02:57:28;99113.44;;;-2.22;94.69
61484;BME280;47349;55.640;37.692;2022-12-29T03:00:09;99088.44;;;-2.27;94.84
61484;BME280;47349;55.640;37.692;2022-12-29T03:05:21;99075.88;;;-2.35;94.70
61484;BME280;47349;55.640;37.692;2022-12-29T03:16:21;99088.03;;;-2.34;95.42
61484;BME280;47349;55.640;37.692;2022-12-29T03:21:36;99093.72;;;-2.40;95.54
61484;BME280;47349;55.640;37.692;2022-12-29T03:24:27;99075.47;;;-2.42;95.42
61484;BME280;47349;55.640;37.692;2022-12-29T03:26:59;99112.72;;;-2.37;95.66
61484;BME280;47349;55.640;37.692;2022-12-29T03:29:36;99112.75;;;-2.49;94.99
61484;BME280;47349;55.640;37.692;2022-12-29T03:32:07;99113.25;;;-2.44;95.22
61484;BME280;47349;55.640;37.692;2022-12-29T03:34:36;99109.91;;;-2.46;95.12
61484;BME280;47349;55.640;37.692;2022-12-29T03:37:10;99100.66;;;-2.52;94.77
61484;BME280;47349;55.640;37.692;2022-12-29T03:39:41;99152.50;;;-2.43;94.44
61484;BME280;47349;55.640;37.692;2022-12-29T03:42:20;99130.06;;;-2.60;94.21
61484;BME280;47349;55.640;37.692;2022-12-29T03:44:53;99144.56;;;-2.54;94.78
61484;BME280;47349;55.640;37.692;2022-12-29T03:47:23;99146.66;;;-2.46;95.32
61484;BME280;47349;55.640;37.692;2022-12-29T03:49:51;99143.06;;;-2.71;94.49
61484;BME280;47349;55.640;37.692;2022-12-29T03:52:19;99146.00;;;-2.63;94.89
61484;BME280;47349;55.640;37.692;2022-12-29T03:54:46;99135.97;;;-2.56;95.11
61484;BME280;47349;55.640;37.692;2022-12-29T03:57:14;99122.31;;;-2.74;95.15
61484;BME280;47349;55.640;37.692;2022-12-29T04:00:04;99168.47;;;-2.59;95.29
61484;BME280;47349;55.640;37.692;2022-12-29T04:02:41;99143.72;;;-2.67;95.32
61484;BME280;47349;55.640;37.692;2022-12-29T04:05:13;99146.44;;;-2.69;95.25
61484;BME280;47349;55.640;37.692;2022-12-29T04:07:41;99147.78;;;-2.76;95.71
61484;BME280;47349;55.640;37.692;2022-12-29T04:10:08;99142.13;;;-2.82;95.49
61484;BME280;47349;55.640;37.692;2022-12-29T04:12:36;99135.66;;;-2.90;95.33
61484;BME280;47349;55.640;37.692;2022-12-29T04:15:03;99161.78;;;-2.75;95.32
61484;BME280;47349;55.640;37.692;2022-12-29T04:17:32;99150.22;;;-2.73;95.16
61484;BME280;47349;55.640;37.692;2022-12-29T04:20:04;99149.16;;;-2.83;95.56
61484;BME280;47349;55.640;37.692;2022-12-29T04:23:04;99157.38;;;-2.75;95.75
61484;BME280;47349;55.640;37.692;2022-12-29T04:25:33;99160.72;;;-2.73;95.48
61484;BME280;47349;55.640;37.692;2022-12-29T04:28:02;99167.53;;;-2.70;95.69
61484;BME280;47349;55.640;37.692;2022-12-29T04:30:55;99155.47;;;-2.73;95.28
61484;BME280;47349;55.640;37.692;2022-12-29T04:33:32;99144.56;;;-2.79;95.09
61484;BME280;47349;55.640;37.692;2022-12-29T04:36:00;99142.97;;;-2.82;95.43
61484;BME280;47349;55.640;37.692;2022-12-29T04:38:27;99165.13;;;-2.73;95.42
61484;BME280;47349;55.640;37.692;2022-12-29T04:40:55;99130.50;;;-2.91;94.52
61484;BME280;47349;55.640;37.692;2022-12-29T04:43:29;99157.38;;;-2.75;95.06
61484;BME280;47349;55.640;37.692;2022-12-29T04:46:19;99169.53;;;-2.74;94.82
61484;BME280;47349;55.640;37.692;2022-12-29T04:48:51;99165.31;;;-2.76;95.10
61484;BME280;47349;55.640;37.692;2022-12-29T04:51:51;99157.56;;;-2.78;94.15
61484;BME280;47349;55.640;37.692;2022-12-29T04:54:19;99137.22;;;-2.87;94.26
61484;BME280;47349;55.640;37.692;2022-12-29T04:56:55;99162.59;;;-2.75;94.57
61484;BME280;47349;55.640;37.692;2022-12-29T04:59:23;99170.69;;;-2.78;94.75
61484;BME280;47349;55.640;37.692;2022-12-29T05:01:55;99182.31;;;-2.82;94.56
61484;BME280;47349;55.640;37.692;2022-12-29T05:04:42;99177.06;;;-2.82;94.64
61484;BME280;47349;55.640;37.692;2022-12-29T05:07:35;99169.72;;;-3.02;94.51
61484;BME280;47349;55.640;37.692;2022-12-29T05:10:15;99171.19;;;-2.98;94.26
61484;BME280;47349;55.640;37.692;2022-12-29T05:13:06;99197.81;;;-2.92;94.27
61484;BME280;47349;55.640;37.692;2022-12-29T05:15:34;99194.19;;;-2.89;94.18
61484;BME280;47349;55.640;37.692;2022-12-29T05:18:12;99164.66;;;-3.05;94.19
61484;BME280;47349;55.640;37.692;2022-12-29T05:20:49;99194.47;;;-2.94;93.91
61484;BME280;47349;55.640;37.692;2022-12-29T05:23:28;99163.53;;;-3.01;93.87
61484;BME280;47349;55.640;37.692;2022-12-29T05:26:00;99193.09;;;-2.87;94.19
61484;BME280;47349;55.640;37.692;2022-12-29T05:28:50;99184.59;;;-2.90;94.31
61484;BME280;47349;55.640;37.692;2022-12-29T05:31:18;99174.66;;;-2.98;94.27
61484;BME280;47349;55.640;37.692;2022-12-29T05:33:47;99178.72;;;-3.06;94.69
61484;BME280;47349;55.640;37.692;2022-12-29T05:36:14;99173.59;;;-3.08;94.25
61484;BME280;47349;55.640;37.692;2022-12-29T05:38:46;99195.31;;;-2.93;94.04
61484;BME280;47349;55.640;37.692;2022-12-29T05:41:16;99197.94;;;-2.93;93.93
61484;BME280;47349;55.640;37.692;2022-12-29T05:43:46;99199.50;;;-3.03;94.22
61484;BME280;47349;55.640;37.692;2022-12-29T05:46:46;99215.16;;;-2.89;94.14
61484;BME280;47349;55.640;37.692;2022-12-29T05:49:34;99204.75;;;-3.03;94.08
61484;BME280;47349;55.640;37.692;2022-12-29T05:52:20;99204.94;;;-3.06;93.90
61484;BME280;47349;55.640;37.692;2022-12-29T05:54:48;99220.59;;;-2.92;93.63
61484;BME280;47349;55.640;37.692;2022-12-29T05:57:18;99190.03;;;-3.06;93.65
61484;BME280;47349;55.640;37.692;2022-12-29T05:59:53;99208.09;;;-3.01;93.42
61484;BME280;47349;55.640;37.692;2022-12-29T06:02:21;99212.06;;;-2.96;93.41
61484;BME280;47349;55.640;37.692;2022-12-29T06:04:48;99219.63;;;-2.91;93.46
61484;BME280;47349;55.640;37.692;2022-12-29T06:07:16;99204.97;;;-2.94;93.30
61484;BME280;47349;55.640;37.692;2022-12-29T06:09:45;99200.25;;;-2.89;93.17
61484;BME280;47349;55.640;37.692;2022-12-29T06:12:13;99216.28;;;-2.80;93.13
61484;BME280;47349;55.640;37.692;2022-12-29T06:14:42;99227.41;;;-2.77;93.03
61484;BME280;47349;55.640;37.692;2022-12-29T06:17:10;99228.56;;;-2.81;93.05
61484;BME280;47349;55.640;37.692;2022-12-29T06:19:37;99220.81;;;-2.82;93.32
61484;BME280;47349;55.640;37.692;2022-12-29T06:22:05;99234.13;;;-2.86;93.40
61484;BME280;47349;55.640;37.692;2022-12-29T06:24:35;99208.84;;;-2.99;93.45
61484;BME280;47349;55.640;37.692;2022-12-29T06:27:02;99195.19;;;-3.04;93.54
61484;BME280;47349;55.640;37.692;2022-12-29T06:29:30;99211.34;;;-2.98;93.39
61484;BME280;47349;55.640;37.692;2022-12-29T06:32:00;99201.69;;;-2.97;93.61
61484;BME280;47349;55.640;37.692;2022-12-29T06:34:30;99222.72;;;-2.85;93.63
61484;BME280;47349;55.640;37.692;2022-12-29T06:36:57;99231.19;;;-2.81;93.53
61484;BME280;47349;55.640;37.692;2022-12-29T06:39:25;99210.22;;;-2.94;93.48
61484;BME280;47349;55.640;37.692;2022-12-29T06:42:04;99219.63;;;-2.91;93.72
61484;BME280;47349;55.640;37.692;2022-12-29T06:45:10;99218.16;;;-2.95;93.77
61484;BME280;47349;55.640;37.692;2022-12-29T06:47:38;99213.97;;;-2.98;93.69
61484;BME280;47349;55.640;37.692;2022-12-29T06:50:05;99229.09;;;-2.89;93.98
61484;BME280;47349;55.640;37.692;2022-12-29T06:52:33;99236.84;;;-2.87;93.87
61484;BME280;47349;55.640;37.692;2022-12-29T06:55:00;99232.84;;;-2.93;93.82
61484;BME280;47349;55.640;37.692;2022-12-29T06:57:28;99216.91;;;-3.02;93.83
61484;BME280;47349;55.640;37.692;2022-12-29T07:00:09;99230.97;;;-2.91;94.06
61484;BME280;47349;55.640;37.692;2022-12-29T07:02:48;99225.63;;;-2.89;93.92
61484;BME280;47349;55.640;37.692;2022-12-29T07:05:16;99219.88;;;-2.94;93.53
61484;BME280;47349;55.640;37.692;2022-12-29T07:07:45;99216.47;;;-2.96;92.97
61484;BME280;47349;55.640;37.692;2022-12-29T07:10:26;99210.41;;;-2.97;93.02
61484;BME280;47349;55.640;37.692;2022-12-29T07:12:53;99218.81;;;-2.92;92.64
61484;BME280;47349;55.640;37.692;2022-12-29T07:15:20;99232.66;;;-2.77;92.56
61484;BME280;47349;55.640;37.692;2022-12-29T07:17:52;99255.13;;;-2.73;92.46
61484;BME280;47349;55.640;37.692;2022-12-29T07:20:22;99234.03;;;-2.84;92.42
61484;BME280;47349;55.640;37.692;2022-12-29T07:22:53;99227.72;;;-2.94;92.85
61484;BME280;47349;55.640;37.692;2022-12-29T07:25:20;99222.47;;;-2.94;93.20
61484;BME280;47349;55.640;37.692;2022-12-29T07:27:48;99207.75;;;-3.10;93.33
61484;BME280;47349;55.640;37.692;2022-12-29T07:30:15;99213.94;;;-3.11;93.46
61484;BME280;47349;55.640;37.692;2022-12-29T07:32:43;99227.19;;;-2.99;93.79
61484;BME280;47349;55.640;37.692;2022-12-29T07:35:10;99206.59;;;-3.18;93.40
61484;BME280;47349;55.640;37.692;2022-12-29T07:37:37;99230.31;;;-3.07;93.55
61484;BME280;47349;55.640;37.692;2022-12-29T07:40:06;99240.19;;;-2.98;93.72
61484;BME280;47349;55.640;37.692;2022-12-29T07:42:34;99238.28;;;-3.08;93.87
61484;BME280;47349;55.640;37.692;2022-12-29T07:45:03;99214.16;;;-3.14;93.82
61484;BME280;47349;55.640;37.692;2022-12-29T07:47:49;99222.03;;;-3.14;93.53
61484;BME280;47349;55.640;37.692;2022-12-29T07:50:17;99246.03;;;-3.07;93.37
61484;BME280;47349;55.640;37.692;2022-12-29T07:52:44;99245.84;;;-3.04;93.13
61484;BME280;47349;55.640;37.692;2022-12-29T07:55:14;99233.56;;;-3.03;92.98
61484;BME280;47349;55.640;37.692;2022-12-29T07:57:43;99261.81;;;-2.81;92.47
61484;BME280;47349;55.640;37.692;2022-12-29T08:00:10;99239.06;;;-2.81;92.67
61484;BME280;47349;55.640;37.692;2022-12-29T08:02:39;99260.78;;;-2.79;92.40
61484;BME280;47349;55.640;37.692;2022-12-29T08:05:06;99241.97;;;-2.86;92.32
61484;BME280;47349;55.640;37.692;2022-12-29T08:07:33;99253.66;;;-2.77;92.62
61484;BME280;47349;55.640;37.692;2022-12-29T08:10:01;99241.91;;;-2.84;92.31
61484;BME280;47349;55.640;37.692;2022-12-29T08:12:39;99266.81;;;-2.64;92.56
61484;BME280;47349;55.640;37.692;2022-12-29T08:15:07;99249.47;;;-2.67;92.26
61484;BME280;47349;55.640;37.692;2022-12-29T08:17:35;99239.09;;;-2.68;91.63
61484;BME280;47349;55.640;37.692;2022-12-29T08:20:03;99256.19;;;-2.75;91.76
61484;BME280;47349;55.640;37.692;2022-12-29T08:22:31;99252.16;;;-2.81;92.06
61484;BME280;47349;55.640;37.692;2022-12-29T08:25:00;99240.94;;;-2.83;91.69
61484;BME280;47349;55.640;37.692;2022-12-29T08:27:29;99275.69;;;-2.67;92.03
61484;BME280;47349;55.640;37.692;2022-12-29T08:29:56;99259.97;;;-2.79;91.78
61484;BME280;47349;55.640;37.692;2022-12-29T08:32:29;99246.09;;;-2.94;92.20
61484;BME280;47349;55.640;37.692;2022-12-29T08:34:57;99241.44;;;-3.03;92.36
61484;BME280;47349;55.640;37.692;2022-12-29T08:37:24;99262.16;;;-2.73;92.31
61484;BME280;47349;55.640;37.692;2022-12-29T08:39:57;99261.09;;;-2.83;91.65
61484;BME280;47349;55.640;37.692;2022-12-29T08:42:25;99264.75;;;-2.86;92.01
61484;BME280;47349;55.640;37.692;2022-12-29T08:44:58;99267.47;;;-2.88;92.63
61484;BME280;47349;55.640;37.692;2022-12-29T08:47:26;99275.03;;;-2.83;92.99
61484;BME280;47349;55.640;37.692;2022-12-29T08:49:54;99260.56;;;-2.76;92.89
61484;BME280;47349;55.640;37.692;2022-12-29T08:52:21;99255.00;;;-2.84;92.35
61484;BME280;47349;55.640;37.692;2022-12-29T08:54:49;99263.00;;;-2.73;91.98
61484;BME280;47349;55.640;37.692;2022-12-29T08:57:17;99271.09;;;-2.63;91.94
61484;BME280;47349;55.640;37.692;2022-12-29T09:00:10;99238.06;;;-2.66;91.83
61484;BME280;47349;55.640;37.692;2022-12-29T09:02:47;99253.72;;;-2.51;91.97
61484;BME280;47349;55.640;37.692;2022-12-29T09:05:16;99262.31;;;-2.49;91.77
61484;BME280;47349;55.640;37.692;2022-12-29T09:07:49;99257.47;;;-2.55;91.42
61484;BME280;47349;55.640;37.692;2022-12-29T09:10:19;99251.25;;;-2.67;91.34
61484;BME280;47349;55.640;37.692;2022-12-29T09:12:56;99263.75;;;-2.58;91.68
61484;BME280;47349;55.640;37.692;2022-12-29T09:15:23;99265.53;;;-2.59;91.42
61484;BME280;47349;55.640;37.692;2022-12-29T09:17:55;99246.72;;;-2.78;91.97
61484;BME280;47349;55.640;37.692;2022-12-29T09:20:23;99259.13;;;-2.67;91.84
61484;BME280;47349;55.640;37.692;2022-12-29T09:23:04;99257.03;;;-2.75;92.09
61484;BME280;47349;55.640;37.692;2022-12-29T09:25:33;99253.03;;;-2.68;91.91
61484;BME280;47349;55.640;37.692;2022-12-29T09:28:14;99246.03;;;-2.54;92.09
61484;BME280;47349;55.640;37.692;2022-12-29T09:30:56;99245.28;;;-2.44;91.10
61484;BME280;47349;55.640;37.692;2022-12-29T09:33:37;99240.16;;;-2.45;90.90
61484;BME280;47349;55.640;37.692;2022-12-29T09:36:10;99248.25;;;-2.36;91.13
61484;BME280;47349;55.640;37.692;2022-12-29T09:38:53;99262.75;;;-2.17;90.98
61484;BME280;47349;55.640;37.692;2022-12-29T09:41:39;99250.34;;;-2.02;90.55
61484;BME280;47349;55.640;37.692;2022-12-29T09:47:26;99256.91;;;-1.84;89.48
61484;BME280;47349;55.640;37.692;2022-12-29T09:50:28;99258.69;;;-1.72;89.02
61484;BME280;47349;55.640;37.692;2022-12-29T09:53:31;99263.34;;;-1.88;89.59
61484;BME280;47349;55.640;37.692;2022-12-29T09:56:19;99251.13;;;-1.89;89.53
61484;BME280;47349;55.640;37.692;2022-12-29T09:59:11;99259.66;;;-1.86;89.10
61484;BME280;47349;55.640;37.692;2022-12-29T10:02:00;99257.03;;;-1.86;88.99
61484;BME280;47349;55.640;37.692;2022-12-29T10:04:46;99268.88;;;-1.80;88.99
61484;BME280;47349;55.640;37.692;2022-12-29T10:10:38;99265.22;;;-1.90;89.40
61484;BME280;47349;55.640;37.692;2022-12-29T10:13:43;99270.59;;;-2.04;89.83
61484;BME280;47349;55.640;37.692;2022-12-29T10:16:43;99250.75;;;-2.34;90.64
61484;BME280;47349;55.640;37.692;2022-12-29T10:19:53;99271.97;;;-2.12;91.53
61484;BME280;47349;55.640;37.692;2022-12-29T10:26:15;99272.59;;;-2.08;90.87
61484;BME280;47349;55.640;37.692;2022-12-29T10:28:57;99249.59;;;-2.04;90.66
61484;BME280;47349;55.640;37.692;2022-12-29T10:32:05;99255.47;;;-2.01;90.30
61484;BME280;47349;55.640;37.692;2022-12-29T10:34:58;99251.69;;;-2.10;90.49
61484;BME280;47349;55.640;37.692;2022-12-29T10:38:04;99267.31;;;-1.95;90.77
61484;BME280;47349;55.640;37.692;2022-12-29T10:41:38;99268.28;;;-1.84;90.88
61484;BME280;47349;55.640;37.692;2022-12-29T10:44:16;99272.25;;;-1.78;90.39
61484;BME280;47349;55.640;37.692;2022-12-29T10:47:00;99246.53;;;-1.98;90.56
61484;BME280;47349;55.640;37.692;2022-12-29T10:49:40;99258.72;;;-1.97;90.53
61484;BME280;47349;55.640;37.692;2022-12-29T10:52:14;99279.09;;;-1.88;91.02
61484;BME280;47349;55.640;37.692;2022-12-29T10:55:17;99252.44;;;-2.08;91.16
61484;BME280;47349;55.640;37.692;2022-12-29T10:58:33;99233.66;;;-2.27;91.16
61484;BME280;47349;55.640;37.692;2022-12-29T11:01:15;99246.78;;;-2.27;91.34
61484;BME280;47349;55.640;37.692;2022-12-29T11:04:07;99269.22;;;-2.10;91.83
61484;BME280;47349;55.640;37.692;2022-12-29T11:06:49;99260.63;;;-2.12;92.31
61484;BME280;47349;55.640;37.692;2022-12-29T11:09:33;99253.28;;;-2.07;92.44
61484;BME280;47349;55.640;37.692;2022-12-29T11:12:28;99261.88;;;-1.92;92.31
61484;BME280;47349;55.640;37.692;2022-12-29T11:15:13;99249.78;;;-1.82;91.75
61484;BME280;47349;55.640;37.692;2022-12-29T11:17:49;99236.94;;;-1.74;91.39
61484;BME280;47349;55.640;37.692;2022-12-29T11:20:36;99250.88;;;-1.61;90.87
61484;BME280;47349;55.640;37.692;2022-12-29T11:23:38;99235.53;;;-1.54;91.07
61484;BME280;47349;55.640;37.692;2022-12-29T11:26:24;99246.63;;;-1.50;90.40
61484;BME280;47349;55.640;37.692;2022-12-29T11:31:55;99240.97;;;-1.57;90.11
61484;BME280;47349;55.640;37.692;2022-12-29T11:34:38;99257.69;;;-1.58;90.27
61484;BME280;47349;55.640;37.692;2022-12-29T11:37:13;99228.56;;;-1.55;90.58
61484;BME280;47349;55.640;37.692;2022-12-29T11:43:00;99239.69;;;-1.51;90.05
61484;BME280;47349;55.640;37.692;2022-12-29T11:45:46;99247.13;;;-1.45;90.46
61484;BME280;47349;55.640;37.692;2022-12-29T11:48:31;99225.94;;;-1.55;90.20
61484;BME280;47349;55.640;37.692;2022-12-29T11:51:01;99249.03;;;-1.47;90.38
61484;BME280;47349;55.640;37.692;2022-12-29T11:53:38;99242.63;;;-1.43;90.51
61484;BME280;47349;55.640;37.692;2022-12-29T11:56:13;99255.00;;;-1.45;90.03
61484;BME280;47349;55.640;37.692;2022-12-29T11:58:54;99262.16;;;-1.35;90.18
61484;BME280;47349;55.640;37.692;2022-12-29T12:01:35;99240.31;;;-1.48;90.03
61484;BME280;47349;55.640;37.692;2022-12-29T12:04:22;99270.38;;;-1.39;90.53
61484;BME280;47349;55.640;37.692;2022-12-29T12:09:54;99284.44;;;-1.40;90.73
61484;BME280;47349;55.640;37.692;2022-12-29T12:12:48;99253.78;;;-1.52;91.01
61484;BME280;47349;55.640;37.692;2022-12-29T12:15:52;99269.72;;;-1.30;90.97
61484;BME280;47349;55.640;37.692;2022-12-29T12:21:16;99269.63;;;-1.41;91.77
61484;BME280;47349;55.640;37.692;2022-12-29T12:26:55;99232.25;;;-1.58;91.37
61484;BME280;47349;55.640;37.692;2022-12-29T12:29:43;99265.53;;;-1.45;92.10
61484;BME280;47349;55.640;37.692;2022-12-29T12:35:23;99248.31;;;-1.49;91.89
61484;BME280;47349;55.640;37.692;2022-12-29T12:38:17;99259.84;;;-1.39;92.16
61484;BME280;47349;55.640;37.692;2022-12-29T12:40:58;99275.19;;;-1.33;92.28
61484;BME280;47349;55.640;37.692;2022-12-29T12:52:43;99238.16;;;-1.30;92.14
61484;BME280;47349;55.640;37.692;2022-12-29T13:09:51;99259.34;;;-1.44;93.10
61484;BME280;47349;55.640;37.692;2022-12-29T13:15:48;99259.22;;;-1.43;93.80
61484;BME280;47349;55.640;37.692;2022-12-29T13:27:01;99258.78;;;-1.13;93.02
61484;BME280;47349;55.640;37.692;2022-12-29T13:30:08;99259.53;;;-1.11;92.71
61484;BME280;47349;55.640;37.692;2022-12-29T13:39:05;99258.53;;;-1.21;92.87
61484;BME280;47349;55.640;37.692;2022-12-29T13:41:52;99265.13;;;-1.15;93.22
61484;BME280;47349;55.640;37.692;2022-12-29T13:44:53;99265.97;;;-1.15;93.30
61484;BME280;47349;55.640;37.692;2022-12-29T13:47:40;99271.09;;;-1.13;93.44
61484;BME280;47349;55.640;37.692;2022-12-29T13:50:26;99261.41;;;-1.13;93.61
61484;BME280;47349;55.640;37.692;2022-12-29T13:53:05;99264.53;;;-1.08;93.51
61484;BME280;47349;55.640;37.692;2022-12-29T14:01:07;99248.19;;;-1.11;92.79
61484;BME280;47349;55.640;37.692;2022-12-29T14:03:52;99257.41;;;-1.06;92.48
61484;BME280;47349;55.640;37.692;2022-12-29T14:06:35;99263.84;;;-1.10;92.66
61484;BME280;47349;55.640;37.692;2022-12-29T14:12:42;99268.34;;;-1.12;92.62
61484;BME280;47349;55.640;37.692;2022-12-29T14:17:44;99245.75;;;-1.38;93.20
61484;BME280;47349;55.640;37.692;2022-12-29T14:20:28;99255.38;;;-1.26;93.83
61484;BME280;47349;55.640;37.692;2022-12-29T14:23:14;99263.78;;;-1.21;93.39
61484;BME280;47349;55.640;37.692;2022-12-29T14:28:44;99259.19;;;-1.30;93.49
61484;BME280;47349;55.640;37.692;2022-12-29T14:36:53;99261.72;;;-1.41;93.30
61484;BME280;47349;55.640;37.692;2022-12-29T14:42:10;99274.47;;;-1.35;94.43
61484;BME280;47349;55.640;37.692;2022-12-29T14:47:37;99275.31;;;-1.47;94.22
61484;BME280;47349;55.640;37.692;2022-12-29T14:50:08;99263.03;;;-1.60;93.90
61484;BME280;47349;55.640;37.692;2022-12-29T14:52:55;99269.34;;;-1.49;94.10
61484;BME280;47349;55.640;37.692;2022-12-29T14:55:46;99262.06;;;-1.46;94.51
61484;BME280;47349;55.640;37.692;2022-12-29T14:58:18;99257.66;;;-1.45;94.44
61484;BME280;47349;55.640;37.692;2022-12-29T15:01:01;99263.66;;;-1.43;94.46
61484;BME280;47349;55.640;37.692;2022-12-29T15:03:30;99266.66;;;-1.37;94.31
61484;BME280;47349;55.640;37.692;2022-12-29T15:06:05;99243.06;;;-1.49;94.26
61484;BME280;47349;55.640;37.692;2022-12-29T15:09:27;99271.41;;;-1.42;93.66
61484;BME280;47349;55.640;37.692;2022-12-29T15:14:38;99274.66;;;-1.38;94.04
61484;BME280;47349;55.640;37.692;2022-12-29T15:19:53;99273.75;;;-1.50;94.48
61484;BME280;47349;55.640;37.692;2022-12-29T15:22:21;99282.88;;;-1.43;95.10
61484;BME280;47349;55.640;37.692;2022-12-29T15:24:54;99282.38;;;-1.48;95.10
61484;BME280;47349;55.640;37.692;2022-12-29T15:27:25;99271.69;;;-1.58;95.73
61484;BME280;47349;55.640;37.692;2022-12-29T15:30:01;99265.97;;;-1.51;95.82
61484;BME280;47349;55.640;37.692;2022-12-29T15:32:42;99267.66;;;-1.50;96.25
61484;BME280;47349;55.640;37.692;2022-12-29T15:35:30;99262.19;;;-1.47;97.07
61484;BME280;47349;55.640;37.692;2022-12-29T15:37:58;99262.19;;;-1.47;97.46
61484;BME280;47349;55.640;37.692;2022-12-29T15:40:30;99256.81;;;-1.46;97.76
61484;BME280;47349;55.640;37.692;2022-12-29T15:46:00;99240.44;;;-1.49;97.14
61484;BME280;47349;55.640;37.692;2022-12-29T15:48:29;99239.56;;;-1.50;97.03
61484;BME280;47349;55.640;37.692;2022-12-29T15:50:58;99232.56;;;-1.49;97.39
61484;BME280;47349;55.640;37.692;2022-12-29T15:53:31;99230.66;;;-1.47;97.75
61484;BME280;47349;55.640;37.692;2022-12-29T15:56:05;99242.63;;;-1.43;97.54
61484;BME280;47349;55.640;37.692;2022-12-29T15:58:41;99247.22;;;-1.34;97.52
61484;BME280;47349;55.640;37.692;2022-12-29T16:03:54;99238.38;;;-1.33;97.23